createdAt,value
2018-02-17T00:00:18.203Z,99568.23
2018-02-17T00:02:45.853Z,99566.52
2018-02-17T00:05:13.505Z,99568.08
2018-02-17T00:07:41.089Z,99565.78
2018-02-17T00:10:08.671Z,99565.04
2018-02-17T00:12:36.292Z,99558.81
2018-02-17T00:15:03.996Z,99563.23
2018-02-17T00:17:31.611Z,99566.16
2018-02-17T00:19:59.244Z,99561.70
2018-02-17T00:22:26.830Z,99561.28
2018-02-17T00:24:54.413Z,99561.91
2018-02-17T00:27:22.074Z,99562.34
2018-02-17T00:29:49.658Z,99551.34
2018-02-17T00:32:17.238Z,99548.25
2018-02-17T00:34:45.210Z,99538.18
2018-02-17T00:37:12.873Z,99541.05
2018-02-17T00:39:40.431Z,99541.77
2018-02-17T00:42:08.081Z,99539.27
2018-02-17T00:44:35.887Z,99544.04
2018-02-17T00:47:03.475Z,99547.37
2018-02-17T00:49:31.434Z,99547.94
2018-02-17T00:51:59.011Z,99537.75
2018-02-17T00:54:26.654Z,99535.30
2018-02-17T00:56:54.290Z,99539.20
2018-02-17T00:59:21.965Z,99534.13
2018-02-17T01:01:49.581Z,99533.38
2018-02-17T01:04:17.216Z,99535.40
2018-02-17T01:06:44.861Z,99540.81
2018-02-17T01:09:12.544Z,99530.72
2018-02-17T01:11:40.172Z,99531.41
2018-02-17T01:14:07.778Z,99522.34
2018-02-17T01:16:35.377Z,99530.40
2018-02-17T01:19:03.013Z,99530.11
2018-02-17T01:21:30.595Z,99528.02
2018-02-17T01:23:58.184Z,99528.37
2018-02-17T01:26:25.894Z,99537.27
2018-02-17T01:28:53.476Z,99538.34
2018-02-17T01:31:21.090Z,99531.94
2018-02-17T01:33:48.736Z,99540.23
2018-02-17T01:36:16.312Z,99532.08
2018-02-17T01:38:44.010Z,99532.41
2018-02-17T01:41:11.630Z,99530.58
2018-02-17T01:43:39.223Z,99533.63
2018-02-17T01:46:06.902Z,99527.56
2018-02-17T01:48:34.548Z,99533.53
2018-02-17T01:51:02.125Z,99522.66
2018-02-17T01:53:29.717Z,99533.61
2018-02-17T01:55:57.599Z,99530.34
2018-02-17T01:58:25.297Z,99523.34
2018-02-17T02:00:52.913Z,99517.42
2018-02-17T02:03:20.563Z,99516.66
2018-02-17T02:05:48.210Z,99525.89
2018-02-17T02:08:15.807Z,99521.69
2018-02-17T02:10:43.534Z,99529.67
2018-02-17T02:13:11.112Z,99523.02
2018-02-17T02:15:38.684Z,99520.31
2018-02-17T02:18:06.328Z,99517.30
2018-02-17T02:20:33.949Z,99527.00
2018-02-17T02:23:02.162Z,99525.38
2018-02-17T02:25:29.809Z,99522.29
2018-02-17T02:27:57.417Z,99524.34
2018-02-17T02:30:25.010Z,99531.17
2018-02-17T02:32:52.874Z,99527.09
2018-02-17T02:35:20.475Z,99529.71
2018-02-17T02:37:48.047Z,99534.05
2018-02-17T02:40:15.895Z,99534.95
2018-02-17T02:42:43.472Z,99543.69
2018-02-17T02:45:17.995Z,99540.91
2018-02-17T02:47:45.725Z,99552.14
2018-02-17T02:50:13.318Z,99549.06
2018-02-17T02:52:41.611Z,99542.20
2018-02-17T02:55:09.202Z,99548.16
2018-02-17T02:57:36.775Z,99547.00
2018-02-17T03:00:04.463Z,99544.55
2018-02-17T03:02:32.038Z,99542.56
2018-02-17T03:04:59.618Z,99546.34
2018-02-17T03:07:27.542Z,99539.46
2018-02-17T03:09:55.201Z,99547.53
2018-02-17T03:12:22.782Z,99543.09
2018-02-17T03:14:50.420Z,99546.80
2018-02-17T03:17:18.006Z,99541.89
2018-02-17T03:19:45.582Z,99536.75
2018-02-17T03:22:13.215Z,99540.81
2018-02-17T03:24:41.700Z,99543.73
2018-02-17T03:27:09.351Z,99543.70
2018-02-17T03:29:37.047Z,99542.92
2018-02-17T03:32:04.766Z,99541.28
2018-02-17T03:34:32.370Z,99543.39
2018-02-17T03:36:59.988Z,99550.30
2018-02-17T03:39:27.618Z,99548.61
2018-02-17T03:41:55.302Z,99559.77
2018-02-17T03:44:23.220Z,99558.40
2018-02-17T03:46:50.806Z,99567.53
2018-02-17T03:49:18.748Z,99565.02
2018-02-17T03:51:46.404Z,99567.97
2018-02-17T03:54:13.977Z,99556.34
2018-02-17T03:56:41.565Z,99558.34
2018-02-17T03:59:09.198Z,99566.87
2018-02-17T04:01:36.789Z,99572.44
2018-02-17T04:04:04.392Z,99571.77
2018-02-17T04:06:32.024Z,99563.98
2018-02-17T04:08:59.605Z,99565.59
2018-02-17T04:11:27.201Z,99567.61
2018-02-17T04:13:54.828Z,99563.86
2018-02-17T04:16:22.399Z,99566.56
2018-02-17T04:18:50.030Z,99575.48
2018-02-17T04:21:17.639Z,99575.28
2018-02-17T04:23:45.306Z,99580.92
2018-02-17T04:26:12.873Z,99573.20
2018-02-17T04:28:42.554Z,99571.90
2018-02-17T04:31:10.141Z,99573.92
2018-02-17T04:33:37.709Z,99582.94
2018-02-17T04:36:05.341Z,99577.93
2018-02-17T04:38:32.952Z,99584.38
2018-02-17T04:41:03.562Z,99588.01
2018-02-17T04:43:34.009Z,99588.91
2018-02-17T04:46:17.408Z,99580.55
2018-02-17T04:48:45.073Z,99583.28
2018-02-17T04:51:18.155Z,99581.56
2018-02-17T04:53:51.231Z,99578.34
2018-02-17T04:56:20.600Z,99582.64
2018-02-17T04:58:52.232Z,99575.97
2018-02-17T05:01:21.724Z,99578.59
2018-02-17T05:03:50.084Z,99581.32
2018-02-17T05:06:20.706Z,99578.51
2018-02-17T05:08:48.322Z,99584.11
2018-02-17T05:11:15.906Z,99585.39
2018-02-17T05:13:43.552Z,99590.42
2018-02-17T05:16:13.036Z,99589.09
2018-02-17T05:18:46.297Z,99589.92
2018-02-17T05:21:18.738Z,99587.20
2018-02-17T05:23:50.016Z,99589.03
2018-02-17T05:26:19.991Z,99591.48
2018-02-17T05:28:47.972Z,99599.91
2018-02-17T05:31:30.711Z,99601.14
2018-02-17T05:34:14.952Z,99611.62
2018-02-17T05:36:48.229Z,99618.54
2018-02-17T05:39:15.903Z,99622.38
2018-02-17T05:41:59.189Z,99626.57
2018-02-17T05:44:41.733Z,99624.50
2018-02-17T05:47:25.093Z,99623.64
2018-02-17T05:49:53.092Z,99630.59
2018-02-17T05:52:20.660Z,99636.83
2018-02-17T05:54:48.290Z,99632.45
2018-02-17T05:57:15.877Z,99640.59
2018-02-17T05:59:43.457Z,99637.75
2018-02-17T06:02:12.169Z,99633.41
2018-02-17T06:04:39.780Z,99633.78
2018-02-17T06:07:07.382Z,99640.30
2018-02-17T06:09:35.023Z,99640.05
2018-02-17T06:12:02.632Z,99647.70
2018-02-17T06:14:30.262Z,99646.99
2018-02-17T06:16:57.941Z,99648.31
2018-02-17T06:19:25.527Z,99648.14
2018-02-17T06:21:53.163Z,99646.77
2018-02-17T06:24:20.881Z,99646.05
2018-02-17T06:26:48.460Z,99649.07
2018-02-17T06:29:16.118Z,99649.75
2018-02-17T06:31:43.770Z,99652.80
2018-02-17T06:34:11.332Z,99647.02
2018-02-17T06:36:38.982Z,99650.27
2018-02-17T06:39:06.919Z,99643.64
2018-02-17T06:41:34.517Z,99655.97
2018-02-17T06:44:02.098Z,99655.88
2018-02-17T06:46:29.874Z,99656.27
2018-02-17T06:48:57.451Z,99661.83
2018-02-17T06:51:25.025Z,99657.84
2018-02-17T06:53:52.672Z,99662.72
2018-02-17T06:56:20.314Z,99660.31
2018-02-17T06:58:47.931Z,99666.59
2018-02-17T07:01:15.571Z,99668.59
2018-02-17T07:03:43.146Z,99674.05
2018-02-17T07:06:10.732Z,99676.15
2018-02-17T07:08:38.418Z,99682.38
2018-02-17T07:11:06.040Z,99686.48
2018-02-17T07:13:33.626Z,99687.75
2018-02-17T07:16:01.279Z,99694.13
2018-02-17T07:18:29.469Z,99703.02
2018-02-17T07:20:57.044Z,99698.27
2018-02-17T07:23:25.273Z,99696.23
2018-02-17T07:25:53.106Z,99693.98
2018-02-17T07:28:20.728Z,99698.70
2018-02-17T07:30:48.377Z,99701.66
2018-02-17T07:33:15.957Z,99705.70
2018-02-17T07:35:43.524Z,99709.13
2018-02-17T07:38:11.150Z,99708.69
2018-02-17T07:40:38.730Z,99701.66
2018-02-17T07:43:06.310Z,99695.60
2018-02-17T07:45:33.927Z,99699.70
2018-02-17T07:48:01.588Z,99697.12
2018-02-17T07:50:29.156Z,99696.77
2018-02-17T07:52:56.780Z,99700.59
2018-02-17T07:55:24.389Z,99698.23
2018-02-17T07:57:51.977Z,99691.03
2018-02-17T08:00:19.842Z,99692.30
2018-02-17T08:02:47.446Z,99689.66
2018-02-17T08:07:55.269Z,99700.70
2018-02-17T08:10:22.851Z,99698.95
2018-02-17T08:12:50.510Z,99695.75
2018-02-17T08:15:18.892Z,99687.73
2018-02-17T08:17:47.514Z,99683.95
2018-02-17T08:20:20.483Z,99677.62
2018-02-17T08:22:51.405Z,99665.69
2018-02-17T08:28:02.561Z,99652.97
2018-02-17T08:30:33.124Z,99663.97
2018-02-17T08:33:04.698Z,99663.58
2018-02-17T08:35:34.764Z,99668.25
2018-02-17T08:38:02.406Z,99663.41
2018-02-17T08:40:30.136Z,99662.90
2018-02-17T08:43:00.008Z,99666.37
2018-02-17T08:45:27.671Z,99664.77
2018-02-17T08:47:55.968Z,99659.75
2018-02-17T08:50:24.300Z,99645.39
2018-02-17T08:52:52.048Z,99646.65
2018-02-17T08:55:19.867Z,99649.87
2018-02-17T08:57:48.352Z,99661.31
2018-02-17T09:00:16.112Z,99663.20
2018-02-17T09:02:44.176Z,99667.06
2018-02-17T09:05:12.376Z,99665.78
2018-02-17T09:07:39.991Z,99666.34
2018-02-17T09:10:08.623Z,99668.13
2018-02-17T09:12:37.670Z,99670.31
2018-02-17T09:15:06.226Z,99663.02
2018-02-17T09:17:33.848Z,99672.73
2018-02-17T09:20:03.619Z,99671.05
2018-02-17T09:22:31.227Z,99670.89
2018-02-17T09:24:58.904Z,99674.42
2018-02-17T09:27:26.708Z,99668.83
2018-02-17T09:29:54.313Z,99664.56
2018-02-17T09:32:21.896Z,99665.84
2018-02-17T09:34:49.615Z,99664.91
2018-02-17T09:37:17.230Z,99656.34
2018-02-17T09:39:44.857Z,99658.01
2018-02-17T09:42:12.731Z,99653.62
2018-02-17T09:44:40.320Z,99657.22
2018-02-17T09:47:07.915Z,99658.93
2018-02-17T09:49:35.554Z,99650.87
2018-02-17T09:52:03.215Z,99649.92
2018-02-17T09:54:30.806Z,99645.23
2018-02-17T09:56:58.524Z,99650.52
2018-02-17T09:59:31.290Z,99641.48
2018-02-17T10:01:58.946Z,99636.56
2018-02-17T10:04:26.618Z,99634.39
2018-02-17T10:06:54.245Z,99636.41
2018-02-17T10:09:24.120Z,99626.73
2018-02-17T10:11:52.750Z,99629.19
2018-02-17T10:14:20.328Z,99628.54
2018-02-17T10:16:50.088Z,99617.78
2018-02-17T10:22:31.428Z,99619.31
2018-02-17T10:24:59.091Z,99607.63
2018-02-17T10:27:27.168Z,99605.44
2018-02-17T10:29:55.072Z,99601.45
2018-02-17T10:32:42.908Z,99595.34
2018-02-17T10:43:58.920Z,99587.84
2018-02-17T10:46:28.996Z,99583.66
2018-02-17T10:49:01.575Z,99579.84
2018-02-17T10:51:30.784Z,99578.69
2018-02-17T10:54:00.421Z,99574.46
2018-02-17T10:56:29.164Z,99573.21
2018-02-17T10:59:04.036Z,99573.02
2018-02-17T11:01:41.226Z,99570.11
2018-02-17T11:09:48.966Z,99567.98
2018-02-17T11:15:01.118Z,99563.91
2018-02-17T11:17:30.543Z,99556.31
2018-02-17T11:20:15.575Z,99548.88
2018-02-17T11:28:48.815Z,99534.84
2018-02-17T11:31:16.491Z,99529.16
2018-02-17T11:33:44.077Z,99520.75
2018-02-17T11:36:12.717Z,99516.91
2018-02-17T11:38:40.374Z,99516.17
2018-02-17T11:41:08.048Z,99511.84
2018-02-17T11:43:35.689Z,99507.25
2018-02-17T11:46:03.362Z,99495.48
2018-02-17T11:48:31.002Z,99496.36
2018-02-17T11:50:58.695Z,99498.37
2018-02-17T11:53:26.287Z,99490.20
2018-02-17T11:55:53.985Z,99484.97
2018-02-17T11:58:21.692Z,99487.81
2018-02-17T12:00:49.468Z,99485.80
2018-02-17T12:03:17.061Z,99477.00
2018-02-17T12:05:44.755Z,99471.83
2018-02-17T12:08:12.645Z,99468.97
2018-02-17T12:10:40.228Z,99474.02
2018-02-17T12:13:07.958Z,99471.30
2018-02-17T12:15:35.546Z,99462.63
2018-02-17T12:18:03.140Z,99458.39
2018-02-17T12:20:30.780Z,99459.31
2018-02-17T12:22:58.357Z,99448.96
2018-02-17T12:25:25.990Z,99447.11
2018-02-17T12:27:53.633Z,99445.83
2018-02-17T12:30:21.223Z,99453.71
2018-02-17T12:32:48.925Z,99457.03
2018-02-17T12:35:16.578Z,99458.08
2018-02-17T12:37:44.219Z,99445.50
2018-02-17T12:40:11.830Z,99440.98
2018-02-17T12:42:39.569Z,99453.17
2018-02-17T12:45:07.154Z,99443.83
2018-02-17T12:47:34.807Z,99447.02
2018-02-17T12:50:04.267Z,99450.59
2018-02-17T12:52:33.947Z,99449.38
2018-02-17T12:55:02.229Z,99445.19
2018-02-17T12:57:30.904Z,99435.78
2018-02-17T12:59:59.358Z,99433.13
2018-02-17T13:02:26.935Z,99437.06
2018-02-17T13:04:54.630Z,99426.49
2018-02-17T13:07:22.250Z,99435.11
2018-02-17T13:09:49.840Z,99437.91
2018-02-17T13:12:17.483Z,99425.98
2018-02-17T13:14:45.123Z,99427.22
2018-02-17T13:17:12.722Z,99429.56
2018-02-17T13:19:40.364Z,99424.48
2018-02-17T13:22:07.964Z,99423.14
2018-02-17T13:24:35.603Z,99424.41
2018-02-17T13:27:03.273Z,99418.22
2018-02-17T13:29:30.853Z,99414.56
2018-02-17T13:31:58.424Z,99421.39
2018-02-17T13:34:26.054Z,99410.45
2018-02-17T13:36:53.617Z,99407.55
2018-02-17T13:39:21.262Z,99409.38
2018-02-17T13:41:48.954Z,99408.53
2018-02-17T13:44:16.590Z,99401.02
2018-02-17T13:46:44.254Z,99398.24
2018-02-17T13:49:11.885Z,99405.54
2018-02-17T13:51:39.479Z,99399.55
2018-02-17T13:54:07.066Z,99399.30
2018-02-17T13:56:34.678Z,99398.28
2018-02-17T13:59:02.430Z,99402.43
2018-02-17T14:01:30.022Z,99394.27
2018-02-17T14:03:57.674Z,99397.46
2018-02-17T14:06:25.337Z,99395.97
2018-02-17T14:08:52.914Z,99387.83
2018-02-17T14:11:20.570Z,99387.88
2018-02-17T14:13:48.153Z,99386.93
2018-02-17T14:16:15.802Z,99383.30
2018-02-17T14:18:43.427Z,99381.00
2018-02-17T14:21:11.019Z,99379.01
2018-02-17T14:23:38.601Z,99375.05
2018-02-17T14:26:06.267Z,99377.08
2018-02-17T14:28:33.853Z,99376.80
2018-02-17T14:31:01.437Z,99373.02
2018-02-17T14:33:30.152Z,99373.02
2018-02-17T14:35:57.748Z,99369.91
2018-02-17T14:38:25.380Z,99374.73
2018-02-17T14:40:53.030Z,99373.88
2018-02-17T14:43:20.627Z,99366.30
2018-02-17T14:45:48.230Z,99372.11
2018-02-17T14:48:15.849Z,99369.36
2018-02-17T14:50:43.421Z,99368.87
2018-02-17T14:53:11.003Z,99368.36
2018-02-17T14:55:38.632Z,99369.34
2018-02-17T14:58:06.314Z,99373.98
2018-02-17T15:00:34.007Z,99371.42
2018-02-17T15:03:01.628Z,99372.41
2018-02-17T15:05:29.272Z,99369.30
2018-02-17T15:07:56.864Z,99369.95
2018-02-17T15:10:24.841Z,99373.27
2018-02-17T15:12:52.416Z,99363.66
2018-02-17T15:15:20.096Z,99366.47
2018-02-17T15:17:47.772Z,99372.09
2018-02-17T15:20:15.337Z,99376.27
2018-02-17T15:22:43.755Z,99382.14
2018-02-17T15:25:11.445Z,99378.28
2018-02-17T15:27:39.004Z,99380.97
2018-02-17T15:30:06.643Z,99377.17
2018-02-17T15:32:34.253Z,99372.00
2018-02-17T15:35:01.847Z,99376.42
2018-02-17T15:37:30.398Z,99385.97
2018-02-17T15:39:58.272Z,99380.33
2018-02-17T15:42:25.878Z,99383.09
2018-02-17T15:44:53.456Z,99380.88
2018-02-17T15:47:21.079Z,99380.67
2018-02-17T15:49:48.665Z,99377.86
2018-02-17T15:52:16.256Z,99385.56
2018-02-17T15:54:43.914Z,99385.70
2018-02-17T15:57:11.485Z,99386.09
2018-02-17T15:59:39.067Z,99387.48
2018-02-17T16:02:06.773Z,99390.89
2018-02-17T16:04:34.365Z,99387.67
2018-02-17T16:07:01.959Z,99386.87
2018-02-17T16:09:29.599Z,99381.55
2018-02-17T16:11:57.190Z,99387.48
2018-02-17T16:14:24.851Z,99390.78
2018-02-17T16:16:52.471Z,99389.04
2018-02-17T16:19:20.039Z,99389.70
2018-02-17T16:21:47.644Z,99388.88
2018-02-17T16:24:15.669Z,99388.56
2018-02-17T16:26:43.250Z,99386.70
2018-02-17T16:29:10.832Z,99389.22
2018-02-17T16:31:38.681Z,99386.88
2018-02-17T16:34:06.250Z,99385.59
2018-02-17T16:36:33.825Z,99387.80
2018-02-17T16:39:01.490Z,99380.52
2018-02-17T16:41:29.157Z,99389.47
2018-02-17T16:43:56.778Z,99380.42
2018-02-17T16:46:24.414Z,99378.11
2018-02-17T16:48:52.061Z,99380.64
2018-02-17T16:51:19.667Z,99378.45
2018-02-17T16:53:47.312Z,99381.00
2018-02-17T16:56:14.962Z,99379.98
2018-02-17T16:58:42.623Z,99375.05
2018-02-17T17:01:10.399Z,99369.80
2018-02-17T17:03:38.096Z,99372.05
2018-02-17T17:06:05.672Z,99380.58
2018-02-17T17:08:33.407Z,99376.68
2018-02-17T17:11:01.091Z,99375.18
2018-02-17T17:13:28.666Z,99371.48
2018-02-17T17:15:56.360Z,99378.24
2018-02-17T17:18:23.947Z,99378.09
2018-02-17T17:20:52.139Z,99379.75
2018-02-17T17:23:19.798Z,99386.23
2018-02-17T17:25:47.390Z,99386.89
2018-02-17T17:28:15.114Z,99387.21
2018-02-17T17:30:42.760Z,99385.59
2018-02-17T17:33:10.384Z,99389.08
2018-02-17T17:35:37.964Z,99387.15
2018-02-17T17:38:05.616Z,99392.63
2018-02-17T17:40:33.770Z,99388.55
2018-02-17T17:43:01.447Z,99390.63
2018-02-17T17:45:29.150Z,99395.12
2018-02-17T17:47:57.207Z,99400.05
2018-02-17T17:50:24.916Z,99397.13
2018-02-17T17:52:52.610Z,99396.91
2018-02-17T17:55:20.172Z,99397.59
2018-02-17T17:57:47.748Z,99394.48
2018-02-17T18:00:15.477Z,99393.69
2018-02-17T18:02:43.053Z,99389.19
2018-02-17T18:05:10.739Z,99387.42
2018-02-17T18:07:38.483Z,99384.11
2018-02-17T18:10:06.139Z,99394.34
2018-02-17T18:12:33.785Z,99387.59
2018-02-17T18:15:01.535Z,99383.29
2018-02-17T18:17:29.118Z,99387.79
2018-02-17T18:19:56.700Z,99388.64
2018-02-17T18:22:24.341Z,99387.64
2018-02-17T18:24:51.931Z,99389.41
2018-02-17T18:27:19.517Z,99385.97
2018-02-17T18:29:47.153Z,99380.94
2018-02-17T18:32:15.534Z,99381.42
2018-02-17T18:34:43.113Z,99378.44
2018-02-17T18:37:10.821Z,99370.18
2018-02-17T18:39:38.417Z,99371.90
2018-02-17T18:42:06.084Z,99369.74
2018-02-17T18:44:33.773Z,99373.39
2018-02-17T18:47:01.436Z,99374.13
2018-02-17T18:49:29.173Z,99374.89
2018-02-17T18:51:56.908Z,99376.55
2018-02-17T18:54:24.537Z,99378.63
2018-02-17T18:56:52.256Z,99379.64
2018-02-17T18:59:19.971Z,99377.73
2018-02-17T19:01:47.691Z,99376.83
2018-02-17T19:04:15.296Z,99389.92
2018-02-17T19:06:43.333Z,99389.72
2018-02-17T19:09:10.981Z,99379.98
2018-02-17T19:11:38.685Z,99376.28
2018-02-17T19:14:06.596Z,99376.28
2018-02-17T19:16:34.258Z,99378.53
2018-02-17T19:19:01.855Z,99384.31
2018-02-17T19:21:29.498Z,99382.00
2018-02-17T19:23:57.190Z,99378.65
2018-02-17T19:26:24.812Z,99383.41
2018-02-17T19:28:52.480Z,99378.31
2018-02-17T19:31:20.251Z,99386.33
2018-02-17T19:33:47.845Z,99383.02
2018-02-17T19:36:16.237Z,99385.47
2018-02-17T19:38:43.840Z,99385.89
2018-02-17T19:41:11.464Z,99390.75
2018-02-17T19:43:39.197Z,99386.77
2018-02-17T19:46:06.843Z,99382.55
2018-02-17T19:48:34.501Z,99380.93
2018-02-17T19:51:02.162Z,99382.00
2018-02-17T19:53:29.758Z,99386.34
2018-02-17T19:55:57.397Z,99390.89
2018-02-17T19:58:25.164Z,99386.88
2018-02-17T20:00:52.758Z,99385.72
2018-02-17T20:03:20.363Z,99388.28
2018-02-17T20:05:48.063Z,99391.66
2018-02-17T20:08:15.748Z,99394.03
2018-02-17T20:10:43.463Z,99400.98
2018-02-17T20:13:11.173Z,99400.06
2018-02-17T20:15:39.100Z,99394.94
2018-02-17T20:18:06.677Z,99400.61
2018-02-17T20:20:34.324Z,99407.81
2018-02-17T20:23:01.983Z,99410.95
2018-02-17T20:25:29.579Z,99410.62
2018-02-17T20:27:57.401Z,99409.03
2018-02-17T20:30:25.113Z,99408.97
2018-02-17T20:32:53.765Z,99405.10
2018-02-17T20:35:21.481Z,99399.41
2018-02-17T20:37:49.090Z,99400.63
2018-02-17T20:40:16.674Z,99393.82
2018-02-17T20:42:44.303Z,99399.05
2018-02-17T20:45:12.034Z,99398.94
2018-02-17T20:47:39.594Z,99384.22
2018-02-17T20:50:07.252Z,99387.44
2018-02-17T20:52:34.872Z,99385.30
2018-02-17T20:55:02.561Z,99391.34
2018-02-17T20:57:30.270Z,99387.75
2018-02-17T20:59:57.833Z,99382.80
2018-02-17T21:02:25.412Z,99376.75
2018-02-17T21:04:53.206Z,99372.36
2018-02-17T21:07:20.797Z,99377.91
2018-02-17T21:09:48.453Z,99377.10
2018-02-17T21:12:16.119Z,99375.34
2018-02-17T21:14:44.550Z,99368.70
2018-02-17T21:17:12.207Z,99378.87
2018-02-17T21:19:39.855Z,99378.27
2018-02-17T21:22:07.461Z,99372.78
2018-02-17T21:24:35.046Z,99376.54
2018-02-17T21:27:02.684Z,99372.84
2018-02-17T21:29:30.252Z,99366.81
2018-02-17T21:31:57.864Z,99363.23
2018-02-17T21:34:25.615Z,99363.38
2018-02-17T21:36:53.201Z,99355.89
2018-02-17T21:39:20.760Z,99359.16
2018-02-17T21:41:48.634Z,99358.67
2018-02-17T21:44:16.220Z,99356.05
2018-02-17T21:46:43.835Z,99351.98
2018-02-17T21:49:11.490Z,99356.38
2018-02-17T21:51:39.061Z,99360.86
2018-02-17T21:54:07.242Z,99361.01
2018-02-17T21:56:34.886Z,99358.34
2018-02-17T21:59:02.451Z,99358.67
2018-02-17T22:01:30.098Z,99359.73
2018-02-17T22:03:57.716Z,99358.34
2018-02-17T22:06:25.317Z,99356.48
2018-02-17T22:08:52.892Z,99365.13
2018-02-17T22:11:20.642Z,99362.39
2018-02-17T22:13:48.228Z,99363.98
2018-02-17T22:16:15.793Z,99364.23
2018-02-17T22:18:43.429Z,99367.98
2018-02-17T22:21:11.105Z,99357.34
2018-02-17T22:23:38.697Z,99356.58
2018-02-17T22:26:06.398Z,99352.28
2018-02-17T22:28:34.089Z,99358.09
2018-02-17T22:31:01.674Z,99356.20
2018-02-17T22:33:29.348Z,99356.10
2018-02-17T22:35:56.944Z,99362.45
2018-02-17T22:38:24.658Z,99349.10
2018-02-17T22:40:52.321Z,99344.91
2018-02-17T22:43:19.910Z,99346.61
2018-02-17T22:45:47.550Z,99349.33
2018-02-17T22:48:15.235Z,99349.12
2018-02-17T22:50:42.876Z,99346.77
2018-02-17T22:53:10.522Z,99349.45
2018-02-17T22:55:38.218Z,99356.14
2018-02-17T22:58:05.791Z,99356.52
2018-02-17T23:00:33.391Z,99350.86
2018-02-17T23:03:01.035Z,99348.72
2018-02-17T23:05:28.615Z,99355.53
2018-02-17T23:07:56.198Z,99354.41
2018-02-17T23:10:24.110Z,99353.31
2018-02-17T23:12:52.663Z,99345.05
2018-02-17T23:15:20.331Z,99340.19
2018-02-17T23:17:47.966Z,99343.02
2018-02-17T23:20:15.554Z,99346.02
2018-02-17T23:22:43.120Z,99339.55
2018-02-17T23:25:10.816Z,99335.64
2018-02-17T23:27:38.493Z,99337.81
2018-02-17T23:30:06.110Z,99344.63
2018-02-17T23:32:33.819Z,99344.44
2018-02-17T23:35:01.402Z,99349.53
2018-02-17T23:37:28.999Z,99349.09
2018-02-17T23:39:56.609Z,99343.91
2018-02-17T23:42:24.192Z,99346.96
2018-02-17T23:44:51.778Z,99350.14
2018-02-17T23:47:19.429Z,99347.23
2018-02-17T23:49:47.088Z,99344.80
2018-02-17T23:52:14.678Z,99349.89
2018-02-17T23:54:42.529Z,99341.84
2018-02-17T23:57:10.142Z,99353.41
2018-02-17T23:59:37.717Z,99349.84
